Jack Brusco — WDC3066 — position and weather

sailwx.info

Track history (hours):
 
Tides and Currents Weather Stations Pressure Air Temp Water Temp Dewpoint Dewpoint Depression Visibility Wind Speed Wind Dir Waves Ship Positions

Jack Brusco

Owner: Brusco Tug & Barge, Inc., Longview, WA. More information available from US FCC via Universal Licensing System and Coast Guard Vessel Documentation Center.

Last reported at 2015-Apr-21 14:25 UTC. Time now 2015-Apr-21 14:42 UTC.
Position N 32°42' W 117°09'.

Length 36 m; draft 5.2 m.

Type: Tug. MMSI: 3699086.

Date/timePositionNaut miles runAvg speedWind from/ knotsBaromVisibWave heightAir tempDewpointWater temp
2015-Apr-21 14:25N 32°42' W 117°09'0 0.0
2015-Apr-21 13:33N 32°42' W 117°09'0 0.0
2015-Apr-21 03:18N 32°42' W 117°09'0 0.0
2015-Apr-21 02:22N 32°42' W 117°09'0 0.0
2015-Apr-21 01:31N 32°42' W 117°09'0 0.0
2015-Apr-21 00:30N 32°42' W 117°09'0 0.0
2015-Apr-20 23:30N 32°42' W 117°09'0 0.0
2015-Apr-20 22:24N 32°42' W 117°09'0 0.0
2015-Apr-20 20:16N 32°42' W 117°09'0 0.0
2015-Apr-20 19:25N 32°42' W 117°09'0 0.0
2015-Apr-20 18:24N 32°42' W 117°09'0 0.0
2015-Apr-20 17:04N 32°42' W 117°09'0 0.0
2015-Apr-20 15:07N 32°42' W 117°09'0 0.0
2015-Apr-20 14:14N 32°42' W 117°09'0 0.0
2015-Apr-20 13:11N 32°42' W 117°09'0 0.0
2015-Apr-20 12:31N 32°42' W 117°09'0 0.0
2015-Apr-20 11:31N 32°42' W 117°09'0 0.0
2015-Apr-20 03:12N 32°42' W 117°09'0 0.0
2015-Apr-20 02:27N 32°42' W 117°09'4 4.4
2015-Apr-20 01:33N 32°41' W 117°14'8 7.6
2015-Apr-20 00:33N 32°42' W 117°23'1313.0
2015-Apr-19 23:34N 32°50' W 117°35'1813.8
2015-Apr-19 22:15N 33°03' W 117°49'913.3
2015-Apr-19 21:33N 33°10' W 117°57'1613.2
2015-Apr-19 20:21N 33°22' W 118°09'1313.1
2015-Apr-19 19:22N 33°33' W 118°18'2613.3
2015-Apr-19 17:26N 33°47' W 118°44'2412.7
2015-Apr-19 15:32N 33°59' W 119°09'17012.0
2015-Apr-19 01:18N 35°43' W 121°53'1113.0
2015-Apr-19 00:29N 35°52' W 122°00'1213.3
2015-Apr-18 23:33N 36°03' W 122°08'1313.0
2015-Apr-18 22:33N 36°14' W 122°16'1312.7
2015-Apr-18 21:32N 36°26' W 122°23'1412.6
2015-Apr-18 20:28N 36°38' W 122°29'1112.3
2015-Apr-18 19:33N 36°49' W 122°33'1312.6
2015-Apr-18 18:33N 37°01' W 122°38'1212.3
2015-Apr-18 17:33N 37°13' W 122°43'1312.7
2015-Apr-18 16:32N 37°26' W 122°43'1412.5
2015-Apr-18 15:26N 37°39' W 122°44'1112.1
2015-Apr-18 14:33N 37°48' W 122°51'1312.7
2015-Apr-18 13:34N 37°55' W 123°05'1312.8
2015-Apr-18 12:33N 38°03' W 123°17'1313.3
2015-Apr-18 11:33N 38°15' W 123°26'1313.1
2015-Apr-18 10:33N 38°27' W 123°33'1313.0
2015-Apr-18 09:32N 38°39' W 123°40'41312.5
2015-Apr-17 00:24N 45°31' W 124°04'1112.9
2015-Apr-16 23:34N 45°42' W 124°05'1313.0
2015-Apr-16 22:34N 45°55' W 124°07'1313.0
2015-Apr-16 21:34N 46°08' W 124°10'10 9.7
2015-Apr-16 20:33N 46°14' W 123°59'6 6.5
2015-Apr-16 19:33N 46°12' W 123°50'0 0.0
2015-Apr-16 18:33N 46°12' W 123°50'0 0.0
2015-Apr-16 17:33N 46°12' W 123°50'0 0.0
2015-Apr-16 16:33N 46°12' W 123°50'6 5.6
2015-Apr-16 15:33N 46°14' W 123°43'1111.4
2015-Apr-16 14:33N 46°15' W 123°27'4 3.9
2015-Apr-16 13:33N 46°12' W 123°23'0 0.0
2015-Apr-16 12:33N 46°12' W 123°23'0 0.0
2015-Apr-16 11:33N 46°12' W 123°23'0 0.0
2015-Apr-16 10:33N 46°12' W 123°23'0 0.0
2015-Apr-16 09:33N 46°12' W 123°23'0 0.0
2015-Apr-16 08:33N 46°12' W 123°23'0 0.0
2015-Apr-16 07:33N 46°12' W 123°23'0 0.0
2015-Apr-16 06:33N 46°12' W 123°23'0 0.0
2015-Apr-16 05:33N 46°12' W 123°23'0 0.0
2015-Apr-16 04:33N 46°12' W 123°23'0 0.0
2015-Apr-16 03:33N 46°12' W 123°23'0 0.0
2015-Apr-16 02:33N 46°12' W 123°23'0 0.0
2015-Apr-16 01:33N 46°12' W 123°23'0 0.0
2015-Apr-16 00:33N 46°12' W 123°23'0 0.0
2015-Apr-15 23:33N 46°12' W 123°23'0 0.0
2015-Apr-15 22:33N 46°12' W 123°23'0 0.0
2015-Apr-15 21:34N 46°12' W 123°23'0 0.0
2015-Apr-15 20:33N 46°12' W 123°23'0 0.0
2015-Apr-15 19:33N 46°12' W 123°23'0 0.0
2015-Apr-15 18:33N 46°12' W 123°23'0 0.0
2015-Apr-15 17:33N 46°12' W 123°23'  
Track history (hours):
 
Tides and Currents Weather Stations Pressure Air Temp Water Temp Dewpoint Dewpoint Depression Visibility Wind Speed Wind Dir Waves Ship Positions

Jack Brusco

Owner: Brusco Tug & Barge, Inc., Longview, WA. More information available from US FCC via Universal Licensing System and Coast Guard Vessel Documentation Center.

Last reported at 2015-Apr-21 14:25 UTC. Time now 2015-Apr-21 14:42 UTC.
Position N 32°42' W 117°09'.

Length 36 m; draft 5.2 m.

Type: Tug. MMSI: 3699086.

Date/timePositionNaut miles runAvg speedWind from/ knotsBaromVisibWave heightAir tempDewpointWater temp
2015-Apr-21 14:25N 32°42' W 117°09'0 0.0
2015-Apr-21 13:33N 32°42' W 117°09'0 0.0
2015-Apr-21 03:18N 32°42' W 117°09'0 0.0
2015-Apr-21 02:22N 32°42' W 117°09'0 0.0
2015-Apr-21 01:31N 32°42' W 117°09'0 0.0
2015-Apr-21 00:30N 32°42' W 117°09'0 0.0
2015-Apr-20 23:30N 32°42' W 117°09'0 0.0
2015-Apr-20 22:24N 32°42' W 117°09'0 0.0
2015-Apr-20 20:16N 32°42' W 117°09'0 0.0
2015-Apr-20 19:25N 32°42' W 117°09'0 0.0
2015-Apr-20 18:24N 32°42' W 117°09'0 0.0
2015-Apr-20 17:04N 32°42' W 117°09'0 0.0
2015-Apr-20 15:07N 32°42' W 117°09'0 0.0
2015-Apr-20 14:14N 32°42' W 117°09'0 0.0
2015-Apr-20 13:11N 32°42' W 117°09'0 0.0
2015-Apr-20 12:31N 32°42' W 117°09'0 0.0
2015-Apr-20 11:31N 32°42' W 117°09'0 0.0
2015-Apr-20 03:12N 32°42' W 117°09'0 0.0
2015-Apr-20 02:27N 32°42' W 117°09'4 4.4
2015-Apr-20 01:33N 32°41' W 117°14'8 7.6
2015-Apr-20 00:33N 32°42' W 117°23'1313.0
2015-Apr-19 23:34N 32°50' W 117°35'1813.8
2015-Apr-19 22:15N 33°03' W 117°49'913.3
2015-Apr-19 21:33N 33°10' W 117°57'1613.2
2015-Apr-19 20:21N 33°22' W 118°09'1313.1
2015-Apr-19 19:22N 33°33' W 118°18'2613.3
2015-Apr-19 17:26N 33°47' W 118°44'2412.7
2015-Apr-19 15:32N 33°59' W 119°09'17012.0
2015-Apr-19 01:18N 35°43' W 121°53'1113.0
2015-Apr-19 00:29N 35°52' W 122°00'1213.3
2015-Apr-18 23:33N 36°03' W 122°08'1313.0
2015-Apr-18 22:33N 36°14' W 122°16'1312.7
2015-Apr-18 21:32N 36°26' W 122°23'1412.6
2015-Apr-18 20:28N 36°38' W 122°29'1112.3
2015-Apr-18 19:33N 36°49' W 122°33'1312.6
2015-Apr-18 18:33N 37°01' W 122°38'1212.3
2015-Apr-18 17:33N 37°13' W 122°43'1312.7
2015-Apr-18 16:32N 37°26' W 122°43'1412.5
2015-Apr-18 15:26N 37°39' W 122°44'1112.1
2015-Apr-18 14:33N 37°48' W 122°51'1312.7
2015-Apr-18 13:34N 37°55' W 123°05'1312.8
2015-Apr-18 12:33N 38°03' W 123°17'1313.3
2015-Apr-18 11:33N 38°15' W 123°26'1313.1
2015-Apr-18 10:33N 38°27' W 123°33'1313.0
2015-Apr-18 09:32N 38°39' W 123°40'41312.5
2015-Apr-17 00:24N 45°31' W 124°04'1112.9
2015-Apr-16 23:34N 45°42' W 124°05'1313.0
2015-Apr-16 22:34N 45°55' W 124°07'1313.0
2015-Apr-16 21:34N 46°08' W 124°10'10 9.7
2015-Apr-16 20:33N 46°14' W 123°59'6 6.5
2015-Apr-16 19:33N 46°12' W 123°50'0 0.0
2015-Apr-16 18:33N 46°12' W 123°50'0 0.0
2015-Apr-16 17:33N 46°12' W 123°50'0 0.0
2015-Apr-16 16:33N 46°12' W 123°50'6 5.6
2015-Apr-16 15:33N 46°14' W 123°43'1111.4
2015-Apr-16 14:33N 46°15' W 123°27'4 3.9
2015-Apr-16 13:33N 46°12' W 123°23'0 0.0
2015-Apr-16 12:33N 46°12' W 123°23'0 0.0
2015-Apr-16 11:33N 46°12' W 123°23'0 0.0
2015-Apr-16 10:33N 46°12' W 123°23'0 0.0
2015-Apr-16 09:33N 46°12' W 123°23'0 0.0
2015-Apr-16 08:33N 46°12' W 123°23'0 0.0
2015-Apr-16 07:33N 46°12' W 123°23'0 0.0
2015-Apr-16 06:33N 46°12' W 123°23'0 0.0
2015-Apr-16 05:33N 46°12' W 123°23'0 0.0
2015-Apr-16 04:33N 46°12' W 123°23'0 0.0
2015-Apr-16 03:33N 46°12' W 123°23'0 0.0
2015-Apr-16 02:33N 46°12' W 123°23'0 0.0
2015-Apr-16 01:33N 46°12' W 123°23'0 0.0
2015-Apr-16 00:33N 46°12' W 123°23'0 0.0
2015-Apr-15 23:33N 46°12' W 123°23'0 0.0
2015-Apr-15 22:33N 46°12' W 123°23'0 0.0
2015-Apr-15 21:34N 46°12' W 123°23'0 0.0
2015-Apr-15 20:33N 46°12' W 123°23'0 0.0
2015-Apr-15 19:33N 46°12' W 123°23'0 0.0
2015-Apr-15 18:33N 46°12' W 123°23'0 0.0
2015-Apr-15 17:33N 46°12' W 123°23'  

Dump ship's entire track history